sensor_id;sensor_type;location;lat;lon;timestamp;P1;durP1;ratioP1;P2;durP2;ratioP2
43606;SDS011;29197;44.788;10.366;2022-12-07T00:02:40;26.13;;;15.37;;
43606;SDS011;29197;44.788;10.366;2022-12-07T00:05:30;25.60;;;15.90;;
43606;SDS011;29197;44.788;10.366;2022-12-07T00:08:20;23.83;;;15.10;;
43606;SDS011;29197;44.788;10.366;2022-12-07T00:11:12;25.00;;;15.33;;
43606;SDS011;29197;44.788;10.366;2022-12-07T00:14:03;28.43;;;16.30;;
43606;SDS011;29197;44.788;10.366;2022-12-07T00:16:55;30.37;;;16.97;;
43606;SDS011;29197;44.788;10.366;2022-12-07T11:52:13;30.17;;;17.10;;
43606;SDS011;29197;44.788;10.366;2022-12-07T11:55:14;31.17;;;17.27;;
43606;SDS011;29197;44.788;10.366;2022-12-07T11:58:12;31.03;;;18.53;;
43606;SDS011;29197;44.788;10.366;2022-12-07T12:01:14;30.33;;;17.93;;
43606;SDS011;29197;44.788;10.366;2022-12-07T12:04:16;34.50;;;19.50;;
43606;SDS011;29197;44.788;10.366;2022-12-07T12:07:16;30.80;;;18.57;;
43606;SDS011;29197;44.788;10.366;2022-12-07T12:10:33;33.90;;;20.03;;
43606;SDS011;29197;44.788;10.366;2022-12-07T12:13:56;32.97;;;19.67;;
43606;SDS011;29197;44.788;10.366;2022-12-07T12:17:22;25.77;;;15.10;;
43606;SDS011;29197;44.788;10.366;2022-12-07T12:20:26;34.23;;;18.97;;
43606;SDS011;29197;44.788;10.366;2022-12-07T12:23:20;34.37;;;20.47;;
43606;SDS011;29197;44.788;10.366;2022-12-07T12:26:14;32.23;;;19.27;;
43606;SDS011;29197;44.788;10.366;2022-12-07T12:29:06;29.33;;;18.27;;
43606;SDS011;29197;44.788;10.366;2022-12-07T12:32:12;33.07;;;19.50;;
43606;SDS011;29197;44.788;10.366;2022-12-07T12:35:22;32.37;;;18.93;;
43606;SDS011;29197;44.788;10.366;2022-12-07T12:38:24;30.47;;;17.23;;
43606;SDS011;29197;44.788;10.366;2022-12-07T12:41:52;29.43;;;18.37;;
43606;SDS011;29197;44.788;10.366;2022-12-07T12:45:03;35.00;;;18.90;;
43606;SDS011;29197;44.788;10.366;2022-12-07T12:48:09;31.93;;;18.67;;
43606;SDS011;29197;44.788;10.366;2022-12-07T12:51:36;29.83;;;17.27;;
43606;SDS011;29197;44.788;10.366;2022-12-07T12:54:28;34.93;;;19.40;;
43606;SDS011;29197;44.788;10.366;2022-12-07T12:57:20;34.73;;;19.07;;
43606;SDS011;29197;44.788;10.366;2022-12-07T13:00:16;34.13;;;18.67;;
43606;SDS011;29197;44.788;10.366;2022-12-07T13:03:16;33.93;;;18.80;;
43606;SDS011;29197;44.788;10.366;2022-12-07T13:06:19;36.50;;;20.43;;
43606;SDS011;29197;44.788;10.366;2022-12-07T13:09:21;35.83;;;20.23;;
43606;SDS011;29197;44.788;10.366;2022-12-07T13:12:14;34.70;;;19.50;;
43606;SDS011;29197;44.788;10.366;2022-12-07T13:18:24;35.60;;;19.40;;
43606;SDS011;29197;44.788;10.366;2022-12-07T13:21:41;33.57;;;18.63;;
43606;SDS011;29197;44.788;10.366;2022-12-07T13:24:31;33.73;;;18.73;;
43606;SDS011;29197;44.788;10.366;2022-12-07T13:27:23;31.43;;;18.57;;
43606;SDS011;29197;44.788;10.366;2022-12-07T13:30:14;35.80;;;19.57;;
43606;SDS011;29197;44.788;10.366;2022-12-07T13:33:04;32.70;;;18.43;;
43606;SDS011;29197;44.788;10.366;2022-12-07T13:35:54;35.20;;;20.00;;
43606;SDS011;29197;44.788;10.366;2022-12-07T13:38:56;35.10;;;19.73;;
43606;SDS011;29197;44.788;10.366;2022-12-07T13:41:49;38.23;;;19.70;;
43606;SDS011;29197;44.788;10.366;2022-12-07T13:44:41;37.63;;;20.77;;
43606;SDS011;29197;44.788;10.366;2022-12-07T13:47:31;41.03;;;22.07;;
43606;SDS011;29197;44.788;10.366;2022-12-07T13:50:27;42.70;;;22.27;;
43606;SDS011;29197;44.788;10.366;2022-12-07T13:53:17;37.37;;;21.27;;
43606;SDS011;29197;44.788;10.366;2022-12-07T13:56:12;43.33;;;23.20;;
43606;SDS011;29197;44.788;10.366;2022-12-07T13:59:02;38.93;;;21.90;;
43606;SDS011;29197;44.788;10.366;2022-12-07T14:01:55;37.03;;;20.57;;
43606;SDS011;29197;44.788;10.366;2022-12-07T14:04:45;38.67;;;21.30;;
43606;SDS011;29197;44.788;10.366;2022-12-07T14:07:34;39.17;;;21.27;;
43606;SDS011;29197;44.788;10.366;2022-12-07T14:10:25;43.30;;;21.50;;
43606;SDS011;29197;44.788;10.366;2022-12-07T14:13:24;35.80;;;20.40;;
43606;SDS011;29197;44.788;10.366;2022-12-07T14:16:22;41.20;;;22.47;;
43606;SDS011;29197;44.788;10.366;2022-12-07T14:22:35;33.83;;;18.37;;
43606;SDS011;29197;44.788;10.366;2022-12-07T14:25:25;40.23;;;21.67;;
43606;SDS011;29197;44.788;10.366;2022-12-07T14:28:24;39.33;;;19.70;;
43606;SDS011;29197;44.788;10.366;2022-12-07T14:31:15;43.50;;;21.43;;
43606;SDS011;29197;44.788;10.366;2022-12-07T14:34:16;38.27;;;19.83;;
43606;SDS011;29197;44.788;10.366;2022-12-07T14:37:08;37.00;;;20.47;;
43606;SDS011;29197;44.788;10.366;2022-12-07T14:39:58;41.17;;;20.57;;
43606;SDS011;29197;44.788;10.366;2022-12-07T14:42:48;39.03;;;21.03;;
43606;SDS011;29197;44.788;10.366;2022-12-07T14:45:41;37.10;;;20.63;;
43606;SDS011;29197;44.788;10.366;2022-12-07T14:48:31;40.97;;;21.80;;
43606;SDS011;29197;44.788;10.366;2022-12-07T14:51:40;38.20;;;20.67;;
43606;SDS011;29197;44.788;10.366;2022-12-07T14:54:52;38.70;;;19.53;;
43606;SDS011;29197;44.788;10.366;2022-12-07T14:57:41;36.27;;;20.30;;
43606;SDS011;29197;44.788;10.366;2022-12-07T15:00:30;41.17;;;21.10;;
43606;SDS011;29197;44.788;10.366;2022-12-07T15:03:21;41.53;;;20.50;;
43606;SDS011;29197;44.788;10.366;2022-12-07T15:06:13;36.97;;;20.27;;
43606;SDS011;29197;44.788;10.366;2022-12-07T15:09:04;43.43;;;21.43;;
43606;SDS011;29197;44.788;10.366;2022-12-07T15:11:56;39.83;;;22.50;;
43606;SDS011;29197;44.788;10.366;2022-12-07T15:14:45;39.63;;;21.93;;
43606;SDS011;29197;44.788;10.366;2022-12-07T15:17:35;36.57;;;18.93;;
43606;SDS011;29197;44.788;10.366;2022-12-07T15:20:24;43.50;;;21.83;;
43606;SDS011;29197;44.788;10.366;2022-12-07T15:23:14;40.53;;;21.77;;
43606;SDS011;29197;44.788;10.366;2022-12-07T15:26:04;43.40;;;23.93;;
43606;SDS011;29197;44.788;10.366;2022-12-07T15:28:55;46.17;;;25.07;;
43606;SDS011;29197;44.788;10.366;2022-12-07T15:31:45;40.63;;;21.33;;
43606;SDS011;29197;44.788;10.366;2022-12-07T15:34:43;39.63;;;21.13;;
43606;SDS011;29197;44.788;10.366;2022-12-07T15:37:32;43.27;;;23.70;;
43606;SDS011;29197;44.788;10.366;2022-12-07T15:40:22;42.17;;;22.97;;
43606;SDS011;29197;44.788;10.366;2022-12-07T15:43:11;41.87;;;21.13;;
43606;SDS011;29197;44.788;10.366;2022-12-07T15:46:16;39.70;;;21.40;;
43606;SDS011;29197;44.788;10.366;2022-12-07T15:49:06;41.13;;;20.70;;
43606;SDS011;29197;44.788;10.366;2022-12-07T15:51:58;34.47;;;20.53;;
43606;SDS011;29197;44.788;10.366;2022-12-07T15:54:48;42.73;;;22.17;;
43606;SDS011;29197;44.788;10.366;2022-12-07T15:57:37;34.57;;;19.93;;
43606;SDS011;29197;44.788;10.366;2022-12-07T16:00:27;37.23;;;19.27;;
43606;SDS011;29197;44.788;10.366;2022-12-07T16:03:19;41.40;;;21.30;;
43606;SDS011;29197;44.788;10.366;2022-12-07T16:06:08;38.60;;;20.73;;
43606;SDS011;29197;44.788;10.366;2022-12-07T16:08:58;43.77;;;21.37;;
43606;SDS011;29197;44.788;10.366;2022-12-07T16:11:47;39.23;;;20.30;;
43606;SDS011;29197;44.788;10.366;2022-12-07T16:14:38;38.07;;;20.43;;
43606;SDS011;29197;44.788;10.366;2022-12-07T16:17:28;40.97;;;21.13;;
43606;SDS011;29197;44.788;10.366;2022-12-07T16:20:19;40.90;;;20.33;;
43606;SDS011;29197;44.788;10.366;2022-12-07T16:23:08;47.17;;;22.13;;
43606;SDS011;29197;44.788;10.366;2022-12-07T16:26:03;42.67;;;22.40;;
43606;SDS011;29197;44.788;10.366;2022-12-07T16:28:54;42.33;;;21.93;;
43606;SDS011;29197;44.788;10.366;2022-12-07T16:31:44;39.57;;;21.27;;
43606;SDS011;29197;44.788;10.366;2022-12-07T16:34:33;46.23;;;23.63;;
43606;SDS011;29197;44.788;10.366;2022-12-07T16:37:24;42.30;;;22.17;;
43606;SDS011;29197;44.788;10.366;2022-12-07T16:40:13;41.23;;;23.20;;
43606;SDS011;29197;44.788;10.366;2022-12-07T16:43:04;46.37;;;23.57;;
43606;SDS011;29197;44.788;10.366;2022-12-07T16:45:53;42.40;;;21.00;;
43606;SDS011;29197;44.788;10.366;2022-12-07T16:48:42;45.70;;;22.37;;
43606;SDS011;29197;44.788;10.366;2022-12-07T16:51:31;42.10;;;21.30;;
43606;SDS011;29197;44.788;10.366;2022-12-07T16:54:24;43.70;;;20.87;;
43606;SDS011;29197;44.788;10.366;2022-12-07T16:57:17;42.70;;;21.13;;
43606;SDS011;29197;44.788;10.366;2022-12-07T17:00:10;32.97;;;18.87;;
43606;SDS011;29197;44.788;10.366;2022-12-07T17:03:01;47.43;;;22.90;;
43606;SDS011;29197;44.788;10.366;2022-12-07T17:05:51;44.90;;;21.83;;
43606;SDS011;29197;44.788;10.366;2022-12-07T17:08:40;44.63;;;22.63;;
43606;SDS011;29197;44.788;10.366;2022-12-07T17:11:31;50.43;;;26.67;;
43606;SDS011;29197;44.788;10.366;2022-12-07T17:14:20;57.53;;;25.40;;
43606;SDS011;29197;44.788;10.366;2022-12-07T17:17:31;52.63;;;23.80;;
43606;SDS011;29197;44.788;10.366;2022-12-07T17:20:22;46.50;;;22.37;;
43606;SDS011;29197;44.788;10.366;2022-12-07T17:23:13;47.97;;;23.37;;
43606;SDS011;29197;44.788;10.366;2022-12-07T17:26:05;42.60;;;22.20;;
43606;SDS011;29197;44.788;10.366;2022-12-07T17:28:56;47.40;;;21.80;;
43606;SDS011;29197;44.788;10.366;2022-12-07T17:31:46;47.73;;;22.80;;
43606;SDS011;29197;44.788;10.366;2022-12-07T17:34:37;46.67;;;22.03;;
43606;SDS011;29197;44.788;10.366;2022-12-07T17:37:27;48.73;;;23.10;;
43606;SDS011;29197;44.788;10.366;2022-12-07T17:40:17;44.80;;;22.43;;
43606;SDS011;29197;44.788;10.366;2022-12-07T17:43:06;44.87;;;22.40;;
43606;SDS011;29197;44.788;10.366;2022-12-07T17:45:57;45.83;;;21.77;;
43606;SDS011;29197;44.788;10.366;2022-12-07T17:48:46;54.50;;;25.83;;
43606;SDS011;29197;44.788;10.366;2022-12-07T17:51:35;46.57;;;22.37;;
43606;SDS011;29197;44.788;10.366;2022-12-07T17:54:42;47.77;;;22.03;;
43606;SDS011;29197;44.788;10.366;2022-12-07T17:57:32;48.63;;;23.53;;
43606;SDS011;29197;44.788;10.366;2022-12-07T18:00:21;51.47;;;24.13;;
43606;SDS011;29197;44.788;10.366;2022-12-07T18:03:11;49.90;;;22.63;;
43606;SDS011;29197;44.788;10.366;2022-12-07T18:06:00;54.23;;;25.10;;
43606;SDS011;29197;44.788;10.366;2022-12-07T18:08:49;48.27;;;22.87;;
43606;SDS011;29197;44.788;10.366;2022-12-07T18:11:37;48.07;;;23.00;;
43606;SDS011;29197;44.788;10.366;2022-12-07T18:14:26;52.03;;;24.60;;
43606;SDS011;29197;44.788;10.366;2022-12-07T18:17:15;53.07;;;25.23;;
43606;SDS011;29197;44.788;10.366;2022-12-07T18:20:06;55.13;;;27.07;;
43606;SDS011;29197;44.788;10.366;2022-12-07T18:22:55;55.37;;;27.30;;
43606;SDS011;29197;44.788;10.366;2022-12-07T18:25:45;56.27;;;25.47;;
43606;SDS011;29197;44.788;10.366;2022-12-07T18:28:35;59.57;;;26.23;;
43606;SDS011;29197;44.788;10.366;2022-12-07T18:31:23;60.53;;;26.47;;
43606;SDS011;29197;44.788;10.366;2022-12-07T18:34:13;50.53;;;23.13;;
43606;SDS011;29197;44.788;10.366;2022-12-07T18:37:04;55.10;;;24.20;;
43606;SDS011;29197;44.788;10.366;2022-12-07T18:39:53;91.97;;;53.43;;
43606;SDS011;29197;44.788;10.366;2022-12-07T18:42:43;117.20;;;66.50;;
43606;SDS011;29197;44.788;10.366;2022-12-07T18:45:33;63.27;;;32.33;;
43606;SDS011;29197;44.788;10.366;2022-12-07T18:48:22;51.90;;;26.97;;
43606;SDS011;29197;44.788;10.366;2022-12-07T18:51:12;55.47;;;26.63;;
43606;SDS011;29197;44.788;10.366;2022-12-07T18:54:03;60.53;;;26.53;;
43606;SDS011;29197;44.788;10.366;2022-12-07T18:56:52;57.03;;;26.17;;
43606;SDS011;29197;44.788;10.366;2022-12-07T18:59:42;53.97;;;26.43;;
43606;SDS011;29197;44.788;10.366;2022-12-07T19:02:36;52.67;;;25.73;;
43606;SDS011;29197;44.788;10.366;2022-12-07T19:05:25;65.17;;;26.27;;
43606;SDS011;29197;44.788;10.366;2022-12-07T19:08:15;62.03;;;25.43;;
43606;SDS011;29197;44.788;10.366;2022-12-07T19:11:06;59.30;;;26.80;;
43606;SDS011;29197;44.788;10.366;2022-12-07T19:14:10;58.83;;;27.40;;
43606;SDS011;29197;44.788;10.366;2022-12-07T19:17:00;58.57;;;26.17;;
43606;SDS011;29197;44.788;10.366;2022-12-07T19:19:51;62.50;;;28.40;;
43606;SDS011;29197;44.788;10.366;2022-12-07T19:22:41;63.93;;;27.43;;
43606;SDS011;29197;44.788;10.366;2022-12-07T19:25:31;70.47;;;29.73;;
43606;SDS011;29197;44.788;10.366;2022-12-07T19:28:22;69.57;;;27.13;;
43606;SDS011;29197;44.788;10.366;2022-12-07T19:31:11;58.77;;;26.70;;
43606;SDS011;29197;44.788;10.366;2022-12-07T19:34:01;73.70;;;27.77;;
43606;SDS011;29197;44.788;10.366;2022-12-07T19:36:50;69.93;;;28.37;;
43606;SDS011;29197;44.788;10.366;2022-12-07T19:39:41;66.33;;;28.27;;
43606;SDS011;29197;44.788;10.366;2022-12-07T19:42:32;60.47;;;27.20;;
43606;SDS011;29197;44.788;10.366;2022-12-07T19:45:24;58.87;;;25.17;;
43606;SDS011;29197;44.788;10.366;2022-12-07T19:48:15;59.87;;;25.23;;
43606;SDS011;29197;44.788;10.366;2022-12-07T19:51:05;61.53;;;26.27;;
43606;SDS011;29197;44.788;10.366;2022-12-07T19:53:55;61.60;;;26.40;;
43606;SDS011;29197;44.788;10.366;2022-12-07T19:56:45;57.33;;;25.67;;
43606;SDS011;29197;44.788;10.366;2022-12-07T19:59:34;55.73;;;27.07;;
43606;SDS011;29197;44.788;10.366;2022-12-07T20:02:26;56.30;;;25.57;;
43606;SDS011;29197;44.788;10.366;2022-12-07T20:05:16;53.87;;;26.60;;
43606;SDS011;29197;44.788;10.366;2022-12-07T20:08:05;50.67;;;24.27;;
43606;SDS011;29197;44.788;10.366;2022-12-07T20:10:57;73.87;;;29.40;;
43606;SDS011;29197;44.788;10.366;2022-12-07T20:13:46;60.37;;;26.67;;
43606;SDS011;29197;44.788;10.366;2022-12-07T20:16:34;61.67;;;27.43;;
43606;SDS011;29197;44.788;10.366;2022-12-07T20:19:27;69.00;;;26.60;;
43606;SDS011;29197;44.788;10.366;2022-12-07T20:22:16;55.73;;;25.63;;
43606;SDS011;29197;44.788;10.366;2022-12-07T20:25:05;61.07;;;25.07;;
43606;SDS011;29197;44.788;10.366;2022-12-07T20:27:55;59.10;;;25.23;;
43606;SDS011;29197;44.788;10.366;2022-12-07T20:30:47;55.53;;;25.67;;
43606;SDS011;29197;44.788;10.366;2022-12-07T20:33:36;56.90;;;25.13;;
43606;SDS011;29197;44.788;10.366;2022-12-07T20:36:27;61.07;;;26.37;;
43606;SDS011;29197;44.788;10.366;2022-12-07T20:39:19;57.83;;;25.27;;
43606;SDS011;29197;44.788;10.366;2022-12-07T20:42:09;61.30;;;26.00;;
43606;SDS011;29197;44.788;10.366;2022-12-07T20:45:16;64.27;;;27.50;;
43606;SDS011;29197;44.788;10.366;2022-12-07T20:48:05;53.47;;;24.43;;
43606;SDS011;29197;44.788;10.366;2022-12-07T20:50:54;63.17;;;26.13;;
43606;SDS011;29197;44.788;10.366;2022-12-07T20:53:54;56.77;;;25.63;;
43606;SDS011;29197;44.788;10.366;2022-12-07T20:56:44;53.63;;;24.13;;
43606;SDS011;29197;44.788;10.366;2022-12-07T20:59:34;54.27;;;24.20;;
43606;SDS011;29197;44.788;10.366;2022-12-07T21:02:27;53.53;;;24.87;;
43606;SDS011;29197;44.788;10.366;2022-12-07T21:05:17;60.57;;;25.60;;
43606;SDS011;29197;44.788;10.366;2022-12-07T21:08:06;57.80;;;25.40;;
43606;SDS011;29197;44.788;10.366;2022-12-07T21:10:57;59.10;;;25.67;;
43606;SDS011;29197;44.788;10.366;2022-12-07T21:13:48;54.43;;;23.87;;
43606;SDS011;29197;44.788;10.366;2022-12-07T21:16:37;60.17;;;25.93;;
43606;SDS011;29197;44.788;10.366;2022-12-07T21:19:27;68.13;;;27.30;;
43606;SDS011;29197;44.788;10.366;2022-12-07T21:22:17;53.33;;;25.43;;
43606;SDS011;29197;44.788;10.366;2022-12-07T21:25:07;62.60;;;28.33;;
43606;SDS011;29197;44.788;10.366;2022-12-07T21:27:59;62.50;;;27.60;;
43606;SDS011;29197;44.788;10.366;2022-12-07T21:30:49;63.17;;;27.30;;
43606;SDS011;29197;44.788;10.366;2022-12-07T21:33:59;66.07;;;28.03;;
43606;SDS011;29197;44.788;10.366;2022-12-07T21:36:49;60.80;;;25.70;;
43606;SDS011;29197;44.788;10.366;2022-12-07T21:39:39;66.20;;;26.97;;
43606;SDS011;29197;44.788;10.366;2022-12-07T21:42:27;74.33;;;30.20;;
43606;SDS011;29197;44.788;10.366;2022-12-07T21:45:19;80.33;;;30.90;;
43606;SDS011;29197;44.788;10.366;2022-12-07T21:48:09;72.40;;;29.17;;
43606;SDS011;29197;44.788;10.366;2022-12-07T21:51:02;67.83;;;28.13;;
43606;SDS011;29197;44.788;10.366;2022-12-07T21:53:52;76.03;;;29.73;;
43606;SDS011;29197;44.788;10.366;2022-12-07T21:56:43;67.27;;;29.00;;
43606;SDS011;29197;44.788;10.366;2022-12-07T21:59:33;72.20;;;29.70;;
43606;SDS011;29197;44.788;10.366;2022-12-07T22:02:23;71.53;;;29.63;;
43606;SDS011;29197;44.788;10.366;2022-12-07T22:05:13;63.50;;;27.63;;
43606;SDS011;29197;44.788;10.366;2022-12-07T22:08:03;72.87;;;28.87;;
43606;SDS011;29197;44.788;10.366;2022-12-07T22:10:53;63.57;;;26.90;;
43606;SDS011;29197;44.788;10.366;2022-12-07T22:13:43;73.60;;;31.17;;
43606;SDS011;29197;44.788;10.366;2022-12-07T22:16:55;72.57;;;29.33;;
43606;SDS011;29197;44.788;10.366;2022-12-07T22:19:47;68.23;;;29.17;;
43606;SDS011;29197;44.788;10.366;2022-12-07T22:22:36;74.97;;;29.83;;
43606;SDS011;29197;44.788;10.366;2022-12-07T22:25:26;74.03;;;30.77;;
43606;SDS011;29197;44.788;10.366;2022-12-07T22:28:15;73.87;;;30.60;;
43606;SDS011;29197;44.788;10.366;2022-12-07T22:31:05;73.10;;;29.57;;
43606;SDS011;29197;44.788;10.366;2022-12-07T22:33:55;72.77;;;30.73;;
43606;SDS011;29197;44.788;10.366;2022-12-07T22:36:46;81.07;;;33.57;;
43606;SDS011;29197;44.788;10.366;2022-12-07T22:39:35;75.93;;;31.40;;
43606;SDS011;29197;44.788;10.366;2022-12-07T22:42:25;75.63;;;31.67;;
43606;SDS011;29197;44.788;10.366;2022-12-07T22:45:15;67.60;;;30.43;;
43606;SDS011;29197;44.788;10.366;2022-12-07T22:48:05;69.07;;;29.03;;
43606;SDS011;29197;44.788;10.366;2022-12-07T22:50:55;68.10;;;29.90;;
43606;SDS011;29197;44.788;10.366;2022-12-07T22:53:46;64.03;;;28.03;;
43606;SDS011;29197;44.788;10.366;2022-12-07T22:56:36;66.77;;;28.70;;
43606;SDS011;29197;44.788;10.366;2022-12-07T22:59:26;56.53;;;26.80;;
43606;SDS011;29197;44.788;10.366;2022-12-07T23:02:15;61.93;;;27.37;;
43606;SDS011;29197;44.788;10.366;2022-12-07T23:05:05;62.33;;;27.93;;
43606;SDS011;29197;44.788;10.366;2022-12-07T23:07:54;61.10;;;27.60;;
43606;SDS011;29197;44.788;10.366;2022-12-07T23:10:46;66.17;;;28.93;;
43606;SDS011;29197;44.788;10.366;2022-12-07T23:13:37;57.43;;;26.30;;
43606;SDS011;29197;44.788;10.366;2022-12-07T23:16:25;67.77;;;29.97;;
43606;SDS011;29197;44.788;10.366;2022-12-07T23:19:15;67.50;;;28.80;;
43606;SDS011;29197;44.788;10.366;2022-12-07T23:22:04;73.33;;;30.33;;
43606;SDS011;29197;44.788;10.366;2022-12-07T23:24:54;62.30;;;28.27;;
43606;SDS011;29197;44.788;10.366;2022-12-07T23:27:45;70.77;;;31.47;;
43606;SDS011;29197;44.788;10.366;2022-12-07T23:30:34;65.57;;;29.73;;
43606;SDS011;29197;44.788;10.366;2022-12-07T23:33:24;64.80;;;29.23;;
43606;SDS011;29197;44.788;10.366;2022-12-07T23:36:14;61.80;;;28.30;;
43606;SDS011;29197;44.788;10.366;2022-12-07T23:39:04;68.10;;;30.97;;
43606;SDS011;29197;44.788;10.366;2022-12-07T23:41:54;59.30;;;29.10;;
43606;SDS011;29197;44.788;10.366;2022-12-07T23:44:45;71.53;;;33.17;;
43606;SDS011;29197;44.788;10.366;2022-12-07T23:47:34;71.97;;;30.10;;
43606;SDS011;29197;44.788;10.366;2022-12-07T23:50:24;70.33;;;33.20;;
43606;SDS011;29197;44.788;10.366;2022-12-07T23:53:14;72.40;;;32.17;;
43606;SDS011;29197;44.788;10.366;2022-12-07T23:56:03;69.00;;;31.97;;
43606;SDS011;29197;44.788;10.366;2022-12-07T23:58:53;70.53;;;32.00;;
